createdAt,value
2022-12-14T00:05:02.872Z,68.92
2022-12-14T00:10:06.434Z,68.80
2022-12-14T00:15:11.435Z,68.52
2022-12-14T00:20:14.245Z,68.71
2022-12-14T00:25:17.154Z,68.59
2022-12-14T00:30:21.921Z,68.67
2022-12-14T00:35:24.973Z,68.60
2022-12-14T00:40:27.937Z,68.38
2022-12-14T00:45:32.185Z,68.14
2022-12-14T00:50:35.003Z,68.08
2022-12-14T00:55:41.940Z,68.06
2022-12-14T01:00:46.326Z,68.01
2022-12-14T01:05:49.583Z,67.90
2022-12-14T01:10:52.531Z,67.85
2022-12-14T01:15:56.772Z,67.64
2022-12-14T01:21:11.412Z,67.79
2022-12-14T01:26:15.084Z,67.80
2022-12-14T01:31:22.018Z,67.67
2022-12-14T01:36:27.683Z,67.64
2022-12-14T01:41:32.092Z,67.55
2022-12-14T01:46:40.208Z,67.62
2022-12-14T01:51:49.776Z,67.64
2022-12-14T01:56:55.128Z,67.62
2022-12-14T02:02:03.593Z,67.42
2022-12-14T02:07:06.773Z,67.62
2022-12-14T02:12:14.969Z,67.57
2022-12-14T02:17:21.566Z,67.48
2022-12-14T02:23:07.507Z,67.62
2022-12-14T02:28:35.222Z,67.70
2022-12-14T02:33:49.801Z,67.96
2022-12-14T02:39:01.783Z,67.90
2022-12-14T02:44:11.024Z,67.87
2022-12-14T02:49:27.027Z,67.91
2022-12-14T02:54:37.710Z,67.89
2022-12-14T02:59:41.522Z,67.92
2022-12-14T03:04:48.403Z,67.93
2022-12-14T03:09:51.339Z,67.85
2022-12-14T03:14:57.136Z,67.96
2022-12-14T03:20:06.804Z,68.02
2022-12-14T03:25:15.456Z,68.27
2022-12-14T03:30:43.948Z,68.15
2022-12-14T03:35:50.812Z,68.37
2022-12-14T03:40:59.830Z,68.18
2022-12-14T03:46:10.895Z,68.46
2022-12-14T03:51:24.066Z,68.40
2022-12-14T03:56:38.403Z,68.55
2022-12-14T04:01:46.998Z,68.74
2022-12-14T04:06:59.926Z,68.61
2022-12-14T04:12:25.202Z,68.60
2022-12-14T04:17:51.454Z,68.62
2022-12-14T04:22:58.635Z,68.30
2022-12-14T04:28:05.176Z,68.26
2022-12-14T04:33:24.695Z,68.43
2022-12-14T04:38:35.785Z,68.41
2022-12-14T04:43:43.646Z,68.08
2022-12-14T04:48:52.089Z,67.57
2022-12-14T04:54:00.741Z,67.23
2022-12-14T04:59:04.428Z,67.01
2022-12-14T05:04:19.869Z,67.26
2022-12-14T05:09:28.241Z,67.13
2022-12-14T05:14:38.345Z,67.25
2022-12-14T05:19:48.636Z,67.02
2022-12-14T05:24:53.148Z,67.46
2022-12-14T05:29:55.998Z,67.27
2022-12-14T05:34:58.839Z,67.03
2022-12-14T05:40:03.014Z,66.90
2022-12-14T05:45:06.454Z,67.41
2022-12-14T05:50:10.158Z,67.19
2022-12-14T05:55:14.547Z,67.02
2022-12-14T06:00:17.734Z,66.91
2022-12-14T06:05:20.567Z,66.93
2022-12-14T06:10:24.862Z,67.06
2022-12-14T06:15:33.659Z,67.12
2022-12-14T06:20:36.831Z,67.54
2022-12-14T06:25:41.083Z,67.39
2022-12-14T06:30:43.985Z,67.56
2022-12-14T06:35:47.818Z,67.56
2022-12-14T06:40:52.001Z,67.52
2022-12-14T06:45:54.969Z,67.34
2022-12-14T06:51:01.370Z,67.94
2022-12-14T06:56:10.688Z,68.15
2022-12-14T07:01:15.565Z,68.19
2022-12-14T07:06:18.584Z,67.96
2022-12-14T07:11:22.910Z,67.66
2022-12-14T07:16:27.114Z,67.72
2022-12-14T07:21:30.404Z,67.66
2022-12-14T07:26:34.591Z,67.59
2022-12-14T07:31:37.460Z,69.97
2022-12-14T07:36:40.551Z,70.51
2022-12-14T07:41:45.962Z,69.69
2022-12-14T07:46:54.999Z,68.61
2022-12-14T07:51:57.846Z,65.99
2022-12-14T07:57:02.029Z,63.30
2022-12-14T08:02:05.023Z,63.49
2022-12-14T08:07:08.095Z,64.03
2022-12-14T08:12:12.359Z,64.64
2022-12-14T08:17:15.388Z,65.37
2022-12-14T08:22:18.186Z,65.34
2022-12-14T08:27:22.352Z,65.97
2022-12-14T08:32:29.569Z,66.36
2022-12-14T08:37:35.354Z,66.71
2022-12-14T08:42:39.674Z,66.60
2022-12-14T08:47:42.503Z,66.22
2022-12-14T08:52:48.307Z,65.77
2022-12-14T08:57:52.585Z,65.21
2022-12-14T09:02:55.479Z,65.17
2022-12-14T09:07:58.882Z,63.82
2022-12-14T09:13:03.255Z,63.17
2022-12-14T09:18:06.372Z,62.90
2022-12-14T09:23:09.403Z,62.81
2022-12-14T09:28:13.648Z,62.90
2022-12-14T09:33:16.491Z,63.37
2022-12-14T09:38:20.091Z,62.67
2022-12-14T09:43:39.098Z,61.99
2022-12-14T09:48:43.643Z,61.51
2022-12-14T09:53:51.370Z,61.90
2022-12-14T09:58:57.339Z,61.86
2022-12-14T10:04:11.875Z,62.20
2022-12-14T10:09:21.994Z,61.91
2022-12-14T10:14:37.241Z,61.49
2022-12-14T10:19:52.491Z,57.87
2022-12-14T10:25:05.951Z,54.46
2022-12-14T10:30:17.983Z,52.63
2022-12-14T10:35:27.689Z,50.98
2022-12-14T10:40:34.387Z,48.26
2022-12-14T10:45:45.284Z,48.31
2022-12-14T10:50:56.843Z,45.78
2022-12-14T10:56:03.109Z,44.05
2022-12-14T11:01:13.057Z,43.31
2022-12-14T11:06:20.130Z,42.96
2022-12-14T11:11:25.787Z,42.31
2022-12-14T11:16:37.756Z,41.79
2022-12-14T11:21:40.754Z,41.55
2022-12-14T11:26:44.701Z,41.90
2022-12-14T11:31:52.504Z,41.64
2022-12-14T11:36:55.390Z,41.05
2022-12-14T11:42:02.897Z,39.92
2022-12-14T11:47:13.601Z,39.92
2022-12-14T11:52:19.877Z,40.52
2022-12-14T11:57:31.879Z,41.87
2022-12-14T12:02:38.656Z,41.51
2022-12-14T12:07:45.954Z,40.49
2022-12-14T12:12:54.038Z,39.87
2022-12-14T12:18:02.881Z,40.51
2022-12-14T12:23:12.804Z,40.36
2022-12-14T12:28:21.244Z,40.89
2022-12-14T12:33:32.312Z,42.06
2022-12-14T12:38:50.162Z,42.36
2022-12-14T12:43:56.844Z,41.81
2022-12-14T12:49:05.997Z,42.21
2022-12-14T12:54:13.830Z,42.38
2022-12-14T12:59:20.858Z,42.96
2022-12-14T13:04:33.923Z,42.34
2022-12-14T13:09:42.403Z,42.86
2022-12-14T13:14:50.057Z,41.78
2022-12-14T13:19:57.577Z,41.62
2022-12-14T13:25:06.497Z,41.70
2022-12-14T13:30:23.617Z,42.28
2022-12-14T13:35:51.370Z,42.41
2022-12-14T13:41:09.095Z,43.11
2022-12-14T13:46:21.406Z,43.42
2022-12-14T13:51:30.233Z,43.67
2022-12-14T13:56:37.874Z,43.21
2022-12-14T14:01:57.678Z,44.35
2022-12-14T14:07:42.132Z,44.67
2022-12-14T14:12:46.720Z,44.76
2022-12-14T14:17:52.783Z,45.33
2022-12-14T14:23:33.771Z,45.49
2022-12-14T14:28:38.919Z,46.12
2022-12-14T14:33:47.856Z,46.76
2022-12-14T14:38:52.165Z,47.10
2022-12-14T14:44:01.171Z,47.93
2022-12-14T14:49:05.177Z,48.98
2022-12-14T14:55:07.056Z,50.70
2022-12-14T15:00:02.417Z,51.62
2022-12-14T15:05:40.227Z,52.48
2022-12-14T15:10:35.465Z,53.44
2022-12-14T15:15:43.586Z,53.58
2022-12-14T15:20:56.646Z,54.89
2022-12-14T15:26:02.121Z,55.75
2022-12-14T15:31:06.741Z,56.09
2022-12-14T15:36:15.600Z,56.57
2022-12-14T15:41:19.147Z,56.61
2022-12-14T15:46:28.444Z,57.21
2022-12-14T15:51:33.928Z,57.73
2022-12-14T15:56:39.687Z,57.92
2022-12-14T16:01:53.518Z,58.06
2022-12-14T16:07:08.639Z,58.19
2022-12-14T16:12:20.848Z,58.28
2022-12-14T16:17:30.924Z,58.45
2022-12-14T16:22:34.416Z,58.68
2022-12-14T16:27:40.069Z,58.84
2022-12-14T16:32:44.651Z,58.89
2022-12-14T16:37:55.645Z,58.94
2022-12-14T16:43:02.958Z,59.10
2022-12-14T16:48:15.361Z,59.10
2022-12-14T16:53:57.982Z,59.13
2022-12-14T16:59:11.689Z,59.06
2022-12-14T17:04:23.518Z,59.58
2022-12-14T17:09:28.528Z,60.17
2022-12-14T17:14:31.938Z,60.45
2022-12-14T17:19:39.364Z,60.53
2022-12-14T17:24:42.766Z,60.93
2022-12-14T17:29:45.804Z,61.26
2022-12-14T17:34:50.106Z,61.90
2022-12-14T17:39:53.332Z,62.12
2022-12-14T17:44:57.965Z,62.18
2022-12-14T17:50:02.227Z,62.46
2022-12-14T17:55:05.868Z,62.36
2022-12-14T18:00:29.089Z,63.43
2022-12-14T18:05:33.719Z,63.65
2022-12-14T18:10:37.260Z,63.53
2022-12-14T18:15:42.375Z,63.52
2022-12-14T18:20:50.711Z,63.13
2022-12-14T18:25:55.975Z,63.45
2022-12-14T18:31:03.728Z,63.50
2022-12-14T18:36:13.427Z,64.05
2022-12-14T18:41:18.478Z,64.65
2022-12-14T18:46:21.685Z,64.96
2022-12-14T18:51:27.020Z,65.22
2022-12-14T18:56:30.493Z,65.60
2022-12-14T19:01:33.632Z,65.93
2022-12-14T19:06:44.678Z,65.72
2022-12-14T19:11:48.347Z,65.76
2022-12-14T19:16:51.257Z,65.92
2022-12-14T19:21:55.580Z,66.37
2022-12-14T19:26:58.663Z,66.44
2022-12-14T19:32:05.245Z,66.43
2022-12-14T19:37:09.904Z,66.18
2022-12-14T19:42:13.937Z,66.14
2022-12-14T19:47:16.807Z,66.89
2022-12-14T19:52:21.227Z,66.89
2022-12-14T19:57:24.314Z,66.40
2022-12-14T20:02:28.037Z,66.60
2022-12-14T20:07:32.329Z,67.03
2022-12-14T20:12:35.356Z,66.85
2022-12-14T20:17:42.096Z,67.04
2022-12-14T20:23:03.107Z,67.14
2022-12-14T20:28:12.065Z,67.13
2022-12-14T20:33:15.268Z,67.02
2022-12-14T20:38:22.496Z,66.91
2022-12-14T20:43:25.557Z,67.43
2022-12-14T20:48:28.558Z,66.93
2022-12-14T20:53:33.306Z,67.01
2022-12-14T20:58:36.694Z,66.96
2022-12-14T21:03:39.873Z,66.58
2022-12-14T21:09:05.077Z,66.43
2022-12-14T21:14:08.194Z,66.76
2022-12-14T21:19:45.645Z,67.09
2022-12-14T21:25:03.089Z,66.91
2022-12-14T21:30:14.288Z,67.45
2022-12-14T21:35:18.505Z,67.65
2022-12-14T21:40:40.349Z,67.50
2022-12-14T21:45:45.727Z,67.40
2022-12-14T21:50:49.307Z,67.57
2022-12-14T21:56:13.919Z,67.61
2022-12-14T22:01:17.198Z,67.62
2022-12-14T22:06:20.179Z,67.15
2022-12-14T22:11:24.525Z,67.13
2022-12-14T22:16:27.430Z,66.90
2022-12-14T22:21:30.496Z,66.71
2022-12-14T22:26:35.125Z,67.37
2022-12-14T22:31:38.525Z,67.83
2022-12-14T22:36:41.433Z,68.13
2022-12-14T22:41:45.989Z,68.59
2022-12-14T22:46:49.917Z,68.93
2022-12-14T22:51:52.848Z,69.59
2022-12-14T22:57:01.127Z,69.26
2022-12-14T23:02:04.409Z,69.36
2022-12-14T23:07:07.666Z,69.58
2022-12-14T23:12:29.424Z,69.50
2022-12-14T23:17:49.785Z,69.59
2022-12-14T23:23:09.992Z,69.30
2022-12-14T23:28:31.840Z,70.02
2022-12-14T23:33:52.753Z,70.35
2022-12-14T23:39:13.278Z,71.58
2022-12-14T23:44:34.966Z,70.98
2022-12-14T23:49:55.549Z,70.91
2022-12-14T23:55:16.072Z,71.20
